sensor_id;sensor_type;location;lat;lon;timestamp;pressure;altitude;pressure_sealevel;temperature;humidity
44481;BME280;30184;42.018;23.670;2023-05-11T00:00:07;91707.78;;;8.19;89.69
44481;BME280;30184;42.018;23.670;2023-05-11T00:02:37;91710.84;;;8.21;89.70
44481;BME280;30184;42.018;23.670;2023-05-11T00:05:08;91708.94;;;8.21;90.33
44481;BME280;30184;42.018;23.670;2023-05-11T00:07:38;91715.09;;;8.22;90.57
44481;BME280;30184;42.018;23.670;2023-05-11T00:10:08;91713.16;;;8.22;90.63
44481;BME280;30184;42.018;23.670;2023-05-11T00:12:37;91711.31;;;8.16;90.78
44481;BME280;30184;42.018;23.670;2023-05-11T00:15:06;91645.97;;;7.74;90.80
44481;BME280;30184;42.018;23.670;2023-05-11T00:17:36;91712.91;;;8.13;90.96
44481;BME280;30184;42.018;23.670;2023-05-11T00:20:08;91712.91;;;8.13;90.92
44481;BME280;30184;42.018;23.670;2023-05-11T00:22:37;91718.31;;;8.13;90.57
44481;BME280;30184;42.018;23.670;2023-05-11T00:25:07;91694.97;;;8.00;89.97
44481;BME280;30184;42.018;23.670;2023-05-11T00:27:36;91717.16;;;8.14;90.10
44481;BME280;30184;42.018;23.670;2023-05-11T00:30:07;91717.16;;;8.14;90.01
44481;BME280;30184;42.018;23.670;2023-05-11T00:32:36;91715.97;;;8.15;90.00
44481;BME280;30184;42.018;23.670;2023-05-11T00:35:08;91715.53;;;7.94;90.26
44481;BME280;30184;42.018;23.670;2023-05-11T00:37:37;91721.78;;;8.14;90.91
44481;BME280;30184;42.018;23.670;2023-05-11T00:40:08;91638.41;;;7.62;90.93
44481;BME280;30184;42.018;23.670;2023-05-11T00:42:37;91681.56;;;7.93;90.82
44481;BME280;30184;42.018;23.670;2023-05-11T00:45:07;91713.69;;;8.14;91.18
44481;BME280;30184;42.018;23.670;2023-05-11T00:47:36;91715.22;;;8.15;91.22
44481;BME280;30184;42.018;23.670;2023-05-11T00:50:08;91724.81;;;8.16;91.31
44481;BME280;30184;42.018;23.670;2023-05-11T00:52:37;91718.25;;;8.17;90.97
44481;BME280;30184;42.018;23.670;2023-05-11T00:55:07;91708.28;;;8.14;90.72
44481;BME280;30184;42.018;23.670;2023-05-11T00:57:37;91706.75;;;8.13;90.49
44481;BME280;30184;42.018;23.670;2023-05-11T01:00:07;91717.03;;;8.21;90.52
44481;BME280;30184;42.018;23.670;2023-05-11T01:02:36;91720.13;;;8.20;90.17
44481;BME280;30184;42.018;23.670;2023-05-11T01:05:08;91714.91;;;8.09;88.71
44481;BME280;30184;42.018;23.670;2023-05-11T01:07:44;91728.94;;;8.01;88.78
44481;BME280;30184;42.018;23.670;2023-05-11T01:10:21;91721.38;;;8.15;88.44
44481;BME280;30184;42.018;23.670;2023-05-11T01:12:56;91722.47;;;8.18;88.65
44481;BME280;30184;42.018;23.670;2023-05-11T01:15:32;91704.59;;;8.01;88.57
44481;BME280;30184;42.018;23.670;2023-05-11T01:18:12;91712.97;;;8.10;89.11
44481;BME280;30184;42.018;23.670;2023-05-11T01:20:46;91723.25;;;8.18;89.46
44481;BME280;30184;42.018;23.670;2023-05-11T01:23:30;91719.00;;;8.17;89.99
44481;BME280;30184;42.018;23.670;2023-05-11T01:26:09;91716.72;;;8.16;90.32
44481;BME280;30184;42.018;23.670;2023-05-11T01:29:06;91715.22;;;8.15;90.56
44481;BME280;30184;42.018;23.670;2023-05-11T01:31:41;91736.13;;;8.11;91.07
44481;BME280;30184;42.018;23.670;2023-05-11T01:34:16;91721.44;;;8.12;91.02
44481;BME280;30184;42.018;23.670;2023-05-11T01:36:50;91740.78;;;8.07;91.12
44481;BME280;30184;42.018;23.670;2023-05-11T01:39:23;91709.63;;;8.02;90.98
44481;BME280;30184;42.018;23.670;2023-05-11T01:41:54;91718.78;;;8.08;91.12
44481;BME280;30184;42.018;23.670;2023-05-11T01:44:26;91734.59;;;8.10;90.88
44481;BME280;30184;42.018;23.670;2023-05-11T01:47:01;91721.13;;;8.06;91.14
44481;BME280;30184;42.018;23.670;2023-05-11T01:49:34;91720.00;;;8.04;91.58
44481;BME280;30184;42.018;23.670;2023-05-11T01:52:06;91733.88;;;8.06;91.52
44481;BME280;30184;42.018;23.670;2023-05-11T01:54:37;91707.59;;;8.06;91.46
44481;BME280;30184;42.018;23.670;2023-05-11T01:57:11;91724.59;;;8.07;90.94
44481;BME280;30184;42.018;23.670;2023-05-11T01:59:41;91723.41;;;8.08;91.07
44481;BME280;30184;42.018;23.670;2023-05-11T02:02:12;91700.44;;;7.96;91.08
44481;BME280;30184;42.018;23.670;2023-05-11T02:04:44;91707.56;;;8.10;91.21
44481;BME280;30184;42.018;23.670;2023-05-11T02:07:15;91712.19;;;8.09;91.33
44481;BME280;30184;42.018;23.670;2023-05-11T02:09:46;91720.31;;;8.09;91.26
44481;BME280;30184;42.018;23.670;2023-05-11T02:12:17;91775.59;;;8.05;91.09
44481;BME280;30184;42.018;23.670;2023-05-11T02:14:47;91694.16;;;8.03;90.98
44481;BME280;30184;42.018;23.670;2023-05-11T02:17:20;91703.28;;;8.12;91.00
44481;BME280;30184;42.018;23.670;2023-05-11T02:19:51;91611.16;;;7.53;90.51
44481;BME280;30184;42.018;23.670;2023-05-11T02:22:22;91703.69;;;8.11;90.53
44481;BME280;30184;42.018;23.670;2023-05-11T02:24:52;91705.22;;;8.12;90.79
44481;BME280;30184;42.018;23.670;2023-05-11T02:27:23;91705.97;;;8.12;90.83
44481;BME280;30184;42.018;23.670;2023-05-11T02:29:54;91709.09;;;8.11;90.84
44481;BME280;30184;42.018;23.670;2023-05-11T02:32:25;91700.22;;;8.10;91.04
44481;BME280;30184;42.018;23.670;2023-05-11T02:35:00;91759.06;;;7.99;91.17
44481;BME280;30184;42.018;23.670;2023-05-11T02:37:30;91688.63;;;7.86;91.48
44481;BME280;30184;42.018;23.670;2023-05-11T02:40:04;91694.94;;;8.03;91.48
44481;BME280;30184;42.018;23.670;2023-05-11T02:42:38;91696.50;;;8.01;90.87
44481;BME280;30184;42.018;23.670;2023-05-11T02:45:11;91686.81;;;8.03;90.56
44481;BME280;30184;42.018;23.670;2023-05-11T02:47:46;91687.59;;;8.04;90.52
44481;BME280;30184;42.018;23.670;2023-05-11T02:50:21;91693.00;;;8.04;90.00
44481;BME280;30184;42.018;23.670;2023-05-11T02:52:54;91668.06;;;7.93;89.95
44481;BME280;30184;42.018;23.670;2023-05-11T02:55:25;91684.47;;;8.05;89.78
44481;BME280;30184;42.018;23.670;2023-05-11T02:57:55;91679.84;;;8.06;89.88
44481;BME280;30184;42.018;23.670;2023-05-11T03:00:25;91663.47;;;7.90;89.78
44481;BME280;30184;42.018;23.670;2023-05-11T03:02:55;91696.06;;;8.06;89.70
44481;BME280;30184;42.018;23.670;2023-05-11T03:05:25;91676.06;;;8.00;89.74
44481;BME280;30184;42.018;23.670;2023-05-11T03:07:57;91669.19;;;7.95;89.48
44481;BME280;30184;42.018;23.670;2023-05-11T03:10:28;91679.16;;;7.98;89.64
44481;BME280;30184;42.018;23.670;2023-05-11T03:12:58;91672.81;;;8.08;90.10
44481;BME280;30184;42.018;23.670;2023-05-11T03:15:28;91670.53;;;8.07;90.88
44481;BME280;30184;42.018;23.670;2023-05-11T03:18:02;91699.09;;;8.08;91.03
44481;BME280;30184;42.018;23.670;2023-05-11T03:20:32;91662.78;;;8.09;90.90
44481;BME280;30184;42.018;23.670;2023-05-11T03:23:04;91663.53;;;8.09;91.12
44481;BME280;30184;42.018;23.670;2023-05-11T03:25:34;91665.47;;;8.09;91.16
44481;BME280;30184;42.018;23.670;2023-05-11T03:28:05;91669.72;;;8.10;90.88
44481;BME280;30184;42.018;23.670;2023-05-11T03:30:36;91651.03;;;7.96;90.63
44481;BME280;30184;42.018;23.670;2023-05-11T03:33:07;91666.25;;;8.09;90.77
44481;BME280;30184;42.018;23.670;2023-05-11T03:35:37;91669.72;;;8.10;91.03
44481;BME280;30184;42.018;23.670;2023-05-11T03:38:11;91670.19;;;8.05;91.65
44481;BME280;30184;42.018;23.670;2023-05-11T03:40:41;91668.31;;;8.02;91.86
44481;BME280;30184;42.018;23.670;2023-05-11T03:43:14;91675.16;;;8.06;91.72
44481;BME280;30184;42.018;23.670;2023-05-11T03:45:47;91637.63;;;7.88;91.54
44481;BME280;30184;42.018;23.670;2023-05-11T03:48:21;91660.91;;;8.06;91.26
44481;BME280;30184;42.018;23.670;2023-05-11T03:50:51;91713.97;;;7.96;91.02
44481;BME280;30184;42.018;23.670;2023-05-11T03:53:21;91665.06;;;8.10;91.31
44481;BME280;30184;42.018;23.670;2023-05-11T03:55:50;91665.78;;;8.14;91.26
44481;BME280;30184;42.018;23.670;2023-05-11T03:58:19;91670.84;;;8.12;91.49
44481;BME280;30184;42.018;23.670;2023-05-11T04:00:49;91635.25;;;7.94;91.49
44481;BME280;30184;42.018;23.670;2023-05-11T04:03:20;91669.19;;;8.18;91.50
44481;BME280;30184;42.018;23.670;2023-05-11T04:05:49;91667.63;;;8.21;91.23
44481;BME280;30184;42.018;23.670;2023-05-11T04:08:18;91667.97;;;8.23;90.72
44481;BME280;30184;42.018;23.670;2023-05-11T04:10:48;91668.28;;;8.25;90.50
44481;BME280;30184;42.018;23.670;2023-05-11T04:13:16;91669.00;;;8.29;90.31
44481;BME280;30184;42.018;23.670;2023-05-11T04:15:46;91653.50;;;8.10;89.78
44481;BME280;30184;42.018;23.670;2023-05-11T04:18:15;91537.91;;;7.28;89.30
44481;BME280;30184;42.018;23.670;2023-05-11T04:20:45;91668.16;;;8.36;89.34
44481;BME280;30184;42.018;23.670;2023-05-11T04:23:14;91671.22;;;8.38;89.37
44481;BME280;30184;42.018;23.670;2023-05-11T04:25:43;91667.75;;;8.37;89.33
44481;BME280;30184;42.018;23.670;2023-05-11T04:28:12;91678.09;;;8.42;89.08
44481;BME280;30184;42.018;23.670;2023-05-11T04:30:42;91678.09;;;8.42;88.37
44481;BME280;30184;42.018;23.670;2023-05-11T04:33:11;91673.78;;;8.45;88.18
44481;BME280;30184;42.018;23.670;2023-05-11T04:35:42;91464.31;;;7.00;87.81
44481;BME280;30184;42.018;23.670;2023-05-11T04:38:12;91676.44;;;8.48;87.48
44481;BME280;30184;42.018;23.670;2023-05-11T04:40:42;91683.66;;;8.55;87.21
44481;BME280;30184;42.018;23.670;2023-05-11T04:43:11;91685.19;;;8.56;86.51
44481;BME280;30184;42.018;23.670;2023-05-11T04:45:41;91674.84;;;8.51;85.95
44481;BME280;30184;42.018;23.670;2023-05-11T04:48:16;91681.66;;;8.59;85.54
44481;BME280;30184;42.018;23.670;2023-05-11T04:50:47;91688.59;;;8.60;85.61
44481;BME280;30184;42.018;23.670;2023-05-11T04:53:20;91700.47;;;8.66;85.77
44481;BME280;30184;42.018;23.670;2023-05-11T04:55:49;91698.88;;;8.69;85.28
44481;BME280;30184;42.018;23.670;2023-05-11T04:58:18;91706.16;;;8.72;85.26
44481;BME280;30184;42.018;23.670;2023-05-11T05:00:48;91706.91;;;8.72;85.02
44481;BME280;30184;42.018;23.670;2023-05-11T05:03:18;91690.00;;;8.68;85.09
44481;BME280;30184;42.018;23.670;2023-05-11T05:05:48;91708.81;;;8.75;84.75
44481;BME280;30184;42.018;23.670;2023-05-11T05:08:19;91714.16;;;8.79;84.95
44481;BME280;30184;42.018;23.670;2023-05-11T05:10:48;91686.72;;;8.57;84.44
44481;BME280;30184;42.018;23.670;2023-05-11T05:13:18;91739.28;;;8.79;84.35
44481;BME280;30184;42.018;23.670;2023-05-11T05:15:47;91711.91;;;8.74;84.56
44481;BME280;30184;42.018;23.670;2023-05-11T05:18:16;91721.44;;;8.82;84.53
44481;BME280;30184;42.018;23.670;2023-05-11T05:20:47;91720.25;;;8.83;84.02
44481;BME280;30184;42.018;23.670;2023-05-11T05:23:16;91728.72;;;8.85;84.01
44481;BME280;30184;42.018;23.670;2023-05-11T05:25:46;91726.56;;;8.76;83.58
44481;BME280;30184;42.018;23.670;2023-05-11T05:28:16;91731.44;;;8.85;83.45
44481;BME280;30184;42.018;23.670;2023-05-11T05:30:46;91734.63;;;8.80;83.20
44481;BME280;30184;42.018;23.670;2023-05-11T05:33:15;91736.13;;;8.81;83.37
44481;BME280;30184;42.018;23.670;2023-05-11T05:35:44;91742.75;;;8.80;83.09
44481;BME280;30184;42.018;23.670;2023-05-11T05:38:15;91748.16;;;8.80;83.20
44481;BME280;30184;42.018;23.670;2023-05-11T05:40:45;91743.56;;;8.77;83.07
44481;BME280;30184;42.018;23.670;2023-05-11T05:43:15;91740.50;;;8.75;83.78
44481;BME280;30184;42.018;23.670;2023-05-11T05:45:44;91734.34;;;8.74;83.78
44481;BME280;30184;42.018;23.670;2023-05-11T05:48:14;91738.28;;;8.70;83.79
44481;BME280;30184;42.018;23.670;2023-05-11T05:50:43;91745.34;;;8.64;84.12
44481;BME280;30184;42.018;23.670;2023-05-11T05:53:12;91740.41;;;8.58;84.46
44481;BME280;30184;42.018;23.670;2023-05-11T05:55:42;91736.16;;;8.57;84.65
44481;BME280;30184;42.018;23.670;2023-05-11T05:58:12;91742.41;;;8.54;84.70
44481;BME280;30184;42.018;23.670;2023-05-11T06:00:42;91744.69;;;8.56;84.86
44481;BME280;30184;42.018;23.670;2023-05-11T06:03:12;91726.09;;;8.35;84.57
44481;BME280;30184;42.018;23.670;2023-05-11T06:05:41;91757.16;;;8.50;84.82
44481;BME280;30184;42.018;23.670;2023-05-11T06:08:11;91761.00;;;8.52;84.70
44481;BME280;30184;42.018;23.670;2023-05-11T06:10:40;91759.78;;;8.53;84.34
44481;BME280;30184;42.018;23.670;2023-05-11T06:13:12;91756.31;;;8.53;83.91
44481;BME280;30184;42.018;23.670;2023-05-11T06:15:43;91758.28;;;8.52;84.15
44481;BME280;30184;42.018;23.670;2023-05-11T06:18:21;91767.22;;;8.49;83.90
44481;BME280;30184;42.018;23.670;2023-05-11T06:20:51;91765.56;;;8.55;84.14
44481;BME280;30184;42.018;23.670;2023-05-11T06:23:21;91755.69;;;8.45;83.71
44481;BME280;30184;42.018;23.670;2023-05-11T06:25:50;91763.56;;;8.59;83.47
44481;BME280;30184;42.018;23.670;2023-05-11T06:28:21;91695.56;;;8.11;83.22
44481;BME280;30184;42.018;23.670;2023-05-11T06:30:56;91754.75;;;8.55;83.26
44481;BME280;30184;42.018;23.670;2023-05-11T06:33:29;91737.47;;;8.49;83.07
44481;BME280;30184;42.018;23.670;2023-05-11T06:36:03;91780.25;;;8.54;82.91
44481;BME280;30184;42.018;23.670;2023-05-11T06:38:32;91763.69;;;8.76;82.76
44481;BME280;30184;42.018;23.670;2023-05-11T06:41:01;91763.56;;;8.83;82.52
44481;BME280;30184;42.018;23.670;2023-05-11T06:43:32;91744.47;;;8.70;82.38
44481;BME280;30184;42.018;23.670;2023-05-11T06:46:02;91702.13;;;8.60;81.88
44481;BME280;30184;42.018;23.670;2023-05-11T06:48:32;91754.72;;;9.02;81.68
44481;BME280;30184;42.018;23.670;2023-05-11T06:51:01;91749.59;;;9.08;81.09
44481;BME280;30184;42.018;23.670;2023-05-11T06:53:30;91753.34;;;9.14;81.15
44481;BME280;30184;42.018;23.670;2023-05-11T06:55:59;91744.44;;;9.13;80.39
44481;BME280;30184;42.018;23.670;2023-05-11T06:58:28;91737.50;;;9.12;80.20
44481;BME280;30184;42.018;23.670;2023-05-11T07:00:59;91758.47;;;9.28;80.29
44481;BME280;30184;42.018;23.670;2023-05-11T07:03:28;91764.19;;;9.33;79.89
44481;BME280;30184;42.018;23.670;2023-05-11T07:05:58;91762.16;;;9.38;79.54
44481;BME280;30184;42.018;23.670;2023-05-11T07:08:27;91717.03;;;9.11;79.11
44481;BME280;30184;42.018;23.670;2023-05-11T07:10:56;91760.00;;;9.49;79.33
44481;BME280;30184;42.018;23.670;2023-05-11T07:13:25;91756.88;;;9.50;78.73
44481;BME280;30184;42.018;23.670;2023-05-11T07:15:54;91765.44;;;9.49;78.94
44481;BME280;30184;42.018;23.670;2023-05-11T07:18:25;91769.31;;;9.48;78.66
44481;BME280;30184;42.018;23.670;2023-05-11T07:20:54;91768.13;;;9.49;78.98
44481;BME280;30184;42.018;23.670;2023-05-11T07:23:23;91755.72;;;9.51;79.02
44481;BME280;30184;42.018;23.670;2023-05-11T07:25:52;91758.97;;;9.62;79.35
44481;BME280;30184;42.018;23.670;2023-05-11T07:28:24;91758.75;;;9.73;78.84
44481;BME280;30184;42.018;23.670;2023-05-11T07:30:53;91757.75;;;9.83;78.64
44481;BME280;30184;42.018;23.670;2023-05-11T07:33:22;91748.03;;;9.86;78.00
44481;BME280;30184;42.018;23.670;2023-05-11T07:35:53;91761.88;;;10.07;77.71
44481;BME280;30184;42.018;23.670;2023-05-11T07:38:22;91758.66;;;10.13;77.41
44481;BME280;30184;42.018;23.670;2023-05-11T07:40:51;91762.34;;;10.22;77.58
44481;BME280;30184;42.018;23.670;2023-05-11T07:43:20;91736.97;;;10.13;77.84
44481;BME280;30184;42.018;23.670;2023-05-11T07:45:49;91755.84;;;10.36;77.76
44481;BME280;30184;42.018;23.670;2023-05-11T07:48:19;91720.63;;;10.16;77.59
44481;BME280;30184;42.018;23.670;2023-05-11T07:50:48;91741.00;;;10.40;77.06
44481;BME280;30184;42.018;23.670;2023-05-11T07:53:18;91753.31;;;10.61;76.20
44481;BME280;30184;42.018;23.670;2023-05-11T07:55:47;91752.94;;;10.75;74.91
44481;BME280;30184;42.018;23.670;2023-05-11T07:58:17;91736.59;;;10.63;74.57
44481;BME280;30184;42.018;23.670;2023-05-11T08:00:46;91751.91;;;10.85;74.09
44481;BME280;30184;42.018;23.670;2023-05-11T08:03:15;91754.47;;;10.93;73.11
44481;BME280;30184;42.018;23.670;2023-05-11T08:05:44;91839.66;;;10.99;72.77
44481;BME280;30184;42.018;23.670;2023-05-11T08:08:13;91748.00;;;11.03;72.27
44481;BME280;30184;42.018;23.670;2023-05-11T08:10:45;91737.56;;;11.01;71.72
44481;BME280;30184;42.018;23.670;2023-05-11T08:13:14;91747.28;;;11.15;71.21
44481;BME280;30184;42.018;23.670;2023-05-11T08:15:43;91757.50;;;11.11;70.75
44481;BME280;30184;42.018;23.670;2023-05-11T08:18:12;91760.38;;;11.20;71.37
44481;BME280;30184;42.018;23.670;2023-05-11T08:20:42;91781.31;;;11.19;71.10
44481;BME280;30184;42.018;23.670;2023-05-11T08:23:11;91751.19;;;11.30;70.71
44481;BME280;30184;42.018;23.670;2023-05-11T08:25:52;91758.16;;;11.44;70.58
44481;BME280;30184;42.018;23.670;2023-05-11T08:28:22;91753.72;;;11.50;69.92
44481;BME280;30184;42.018;23.670;2023-05-11T08:30:55;91752.56;;;11.64;69.99
44481;BME280;30184;42.018;23.670;2023-05-11T08:33:24;91752.78;;;11.85;69.97
44481;BME280;30184;42.018;23.670;2023-05-11T08:35:57;91753.44;;;12.02;67.82
44481;BME280;30184;42.018;23.670;2023-05-11T08:38:26;91744.00;;;12.19;67.26
44481;BME280;30184;42.018;23.670;2023-05-11T08:40:56;91748.22;;;12.33;66.96
44481;BME280;30184;42.018;23.670;2023-05-11T08:43:26;91734.09;;;12.51;66.82
44481;BME280;30184;42.018;23.670;2023-05-11T08:45:59;91724.59;;;12.68;66.13
44481;BME280;30184;42.018;23.670;2023-05-11T08:48:30;91735.97;;;12.88;65.86
44481;BME280;30184;42.018;23.670;2023-05-11T08:51:00;91708.22;;;12.81;64.83
44481;BME280;30184;42.018;23.670;2023-05-11T08:53:30;91727.84;;;13.10;64.34
44481;BME280;30184;42.018;23.670;2023-05-11T08:56:02;91736.13;;;13.19;63.48
44481;BME280;30184;42.018;23.670;2023-05-11T08:58:34;91731.44;;;13.20;62.54
44481;BME280;30184;42.018;23.670;2023-05-11T09:01:05;91718.72;;;13.04;63.44
44481;BME280;30184;42.018;23.670;2023-05-11T09:03:35;91718.13;;;13.34;63.54
44481;BME280;30184;42.018;23.670;2023-05-11T09:06:06;91713.78;;;13.46;62.99
44481;BME280;30184;42.018;23.670;2023-05-11T09:08:37;91685.97;;;13.51;62.91
44481;BME280;30184;42.018;23.670;2023-05-11T09:11:09;91705.91;;;13.92;61.83
44481;BME280;30184;42.018;23.670;2023-05-11T09:13:38;91626.22;;;13.66;60.97
44481;BME280;30184;42.018;23.670;2023-05-11T09:16:07;91703.84;;;14.36;60.04
44481;BME280;30184;42.018;23.670;2023-05-11T09:18:46;91700.69;;;14.46;59.53
44481;BME280;30184;42.018;23.670;2023-05-11T09:21:18;91644.53;;;14.36;59.30
44481;BME280;30184;42.018;23.670;2023-05-11T09:23:48;91708.41;;;14.79;58.31
44481;BME280;30184;42.018;23.670;2023-05-11T09:26:20;91679.59;;;14.96;57.95
44481;BME280;30184;42.018;23.670;2023-05-11T09:28:54;91686.72;;;15.21;57.46
44481;BME280;30184;42.018;23.670;2023-05-11T09:31:36;91677.16;;;15.53;55.93
44481;BME280;30184;42.018;23.670;2023-05-11T09:34:14;91668.97;;;15.62;54.59
44481;BME280;30184;42.018;23.670;2023-05-11T09:36:44;91758.34;;;15.65;55.22
44481;BME280;30184;42.018;23.670;2023-05-11T09:39:13;91571.94;;;15.12;54.89
44481;BME280;30184;42.018;23.670;2023-05-11T09:41:50;91679.41;;;15.91;53.08
44481;BME280;30184;42.018;23.670;2023-05-11T09:44:19;91680.28;;;15.97;54.14
44481;BME280;30184;42.018;23.670;2023-05-11T09:46:48;91671.53;;;15.84;54.89
44481;BME280;30184;42.018;23.670;2023-05-11T09:49:17;91666.38;;;15.67;55.44
44481;BME280;30184;42.018;23.670;2023-05-11T09:51:46;91651.16;;;15.66;55.01
44481;BME280;30184;42.018;23.670;2023-05-11T09:54:17;91661.63;;;15.86;54.32
44481;BME280;30184;42.018;23.670;2023-05-11T09:56:48;91658.06;;;16.04;53.83
44481;BME280;30184;42.018;23.670;2023-05-11T09:59:37;91654.47;;;15.89;54.75
44481;BME280;30184;42.018;23.670;2023-05-11T10:02:17;91673.47;;;16.01;55.17
44481;BME280;30184;42.018;23.670;2023-05-11T10:04:47;91654.53;;;16.22;54.50
44481;BME280;30184;42.018;23.670;2023-05-11T10:07:24;91658.50;;;16.54;53.54
44481;BME280;30184;42.018;23.670;2023-05-11T10:09:55;91649.56;;;16.77;51.22
44481;BME280;30184;42.018;23.670;2023-05-11T10:12:25;91661.59;;;17.03;50.28
44481;BME280;30184;42.018;23.670;2023-05-11T10:15:00;91644.66;;;17.05;50.03
44481;BME280;30184;42.018;23.670;2023-05-11T10:17:31;91634.50;;;17.20;49.86
44481;BME280;30184;42.018;23.670;2023-05-11T10:20:01;91636.88;;;17.27;49.45
44481;BME280;30184;42.018;23.670;2023-05-11T10:22:31;91638.00;;;17.35;47.54
44481;BME280;30184;42.018;23.670;2023-05-11T10:25:01;91628.75;;;17.33;48.90
44481;BME280;30184;42.018;23.670;2023-05-11T10:27:32;91650.13;;;17.29;49.96
44481;BME280;30184;42.018;23.670;2023-05-11T10:30:04;91630.63;;;17.27;49.23
44481;BME280;30184;42.018;23.670;2023-05-11T10:32:35;91622.22;;;17.30;48.95
44481;BME280;30184;42.018;23.670;2023-05-11T10:35:06;91626.09;;;17.24;50.37
44481;BME280;30184;42.018;23.670;2023-05-11T10:37:35;91622.38;;;16.88;52.54
44481;BME280;30184;42.018;23.670;2023-05-11T10:40:06;91616.19;;;16.55;53.87
44481;BME280;30184;42.018;23.670;2023-05-11T10:42:54;91616.91;;;16.31;55.78
44481;BME280;30184;42.018;23.670;2023-05-11T10:45:40;91622.47;;;16.04;55.81
44481;BME280;30184;42.018;23.670;2023-05-11T10:48:36;91635.47;;;15.85;57.00
44481;BME280;30184;42.018;23.670;2023-05-11T10:54:20;91604.56;;;15.34;57.09
44481;BME280;30184;42.018;23.670;2023-05-11T11:03:09;91634.78;;;15.39;57.68
44481;BME280;30184;42.018;23.670;2023-05-11T11:05:39;91629.78;;;15.38;58.30
44481;BME280;30184;42.018;23.670;2023-05-11T11:08:10;91621.09;;;15.48;58.95
44481;BME280;30184;42.018;23.670;2023-05-11T11:10:41;91631.13;;;15.51;57.94
44481;BME280;30184;42.018;23.670;2023-05-11T11:13:13;91613.53;;;15.25;57.08
44481;BME280;30184;42.018;23.670;2023-05-11T11:16:08;91631.16;;;15.15;57.07
44481;BME280;30184;42.018;23.670;2023-05-11T11:18:41;91622.97;;;14.97;58.09
44481;BME280;30184;42.018;23.670;2023-05-11T11:21:10;91623.72;;;14.88;58.64
44481;BME280;30184;42.018;23.670;2023-05-11T11:23:44;91619.16;;;14.94;59.28
44481;BME280;30184;42.018;23.670;2023-05-11T11:26:17;91618.09;;;14.73;59.52
44481;BME280;30184;42.018;23.670;2023-05-11T11:29:09;91615.53;;;14.88;59.83
44481;BME280;30184;42.018;23.670;2023-05-11T11:31:39;91615.81;;;14.81;60.12
44481;BME280;30184;42.018;23.670;2023-05-11T11:34:32;91622.47;;;14.62;60.99
44481;BME280;30184;42.018;23.670;2023-05-11T11:37:04;91620.63;;;14.49;61.72
44481;BME280;30184;42.018;23.670;2023-05-11T11:39:49;91619.41;;;14.41;62.51
44481;BME280;30184;42.018;23.670;2023-05-11T11:42:36;91624.75;;;14.14;63.60
44481;BME280;30184;42.018;23.670;2023-05-11T11:45:30;91618.63;;;14.01;64.46
44481;BME280;30184;42.018;23.670;2023-05-11T11:48:14;91591.03;;;13.59;65.49
44481;BME280;30184;42.018;23.670;2023-05-11T11:50:46;91619.72;;;13.72;64.96
44481;BME280;30184;42.018;23.670;2023-05-11T11:56:52;91602.97;;;13.08;66.93
44481;BME280;30184;42.018;23.670;2023-05-11T11:59:22;91613.88;;;13.08;67.63
44481;BME280;30184;42.018;23.670;2023-05-11T12:01:51;91600.75;;;12.94;67.83
44481;BME280;30184;42.018;23.670;2023-05-11T12:04:39;91585.09;;;12.64;68.23
44481;BME280;30184;42.018;23.670;2023-05-11T12:07:18;91544.47;;;12.35;69.02
44481;BME280;30184;42.018;23.670;2023-05-11T12:09:48;91605.91;;;12.58;69.36
44481;BME280;30184;42.018;23.670;2023-05-11T12:12:20;91609.00;;;12.47;69.77
44481;BME280;30184;42.018;23.670;2023-05-11T12:14:49;91610.28;;;12.43;70.09
44481;BME280;30184;42.018;23.670;2023-05-11T12:17:25;91599.53;;;12.39;70.46
44481;BME280;30184;42.018;23.670;2023-05-11T12:20:10;91605.63;;;12.43;70.09
44481;BME280;30184;42.018;23.670;2023-05-11T12:22:42;91604.09;;;12.42;70.27
44481;BME280;30184;42.018;23.670;2023-05-11T12:25:14;91571.00;;;12.09;70.58
44481;BME280;30184;42.018;23.670;2023-05-11T12:27:49;91609.16;;;12.18;70.75
44481;BME280;30184;42.018;23.670;2023-05-11T12:30:22;91611.47;;;12.07;71.66
44481;BME280;30184;42.018;23.670;2023-05-11T12:32:52;91608.31;;;12.09;71.84
44481;BME280;30184;42.018;23.670;2023-05-11T12:35:25;91601.91;;;12.03;71.87
44481;BME280;30184;42.018;23.670;2023-05-11T12:37:57;91598.66;;;11.95;72.38
44481;BME280;30184;42.018;23.670;2023-05-11T12:40:27;91610.50;;;12.01;72.10
44481;BME280;30184;42.018;23.670;2023-05-11T12:42:57;91618.66;;;12.01;72.22
44481;BME280;30184;42.018;23.670;2023-05-11T12:45:27;91595.69;;;11.89;72.28
44481;BME280;30184;42.018;23.670;2023-05-11T12:47:57;91596.78;;;11.79;72.43
44481;BME280;30184;42.018;23.670;2023-05-11T12:50:26;91596.22;;;11.72;72.87
44481;BME280;30184;42.018;23.670;2023-05-11T12:55:58;91587.75;;;11.70;73.16
44481;BME280;30184;42.018;23.670;2023-05-11T12:58:35;91524.81;;;11.20;72.79
44481;BME280;30184;42.018;23.670;2023-05-11T13:01:05;91595.34;;;11.62;72.70
44481;BME280;30184;42.018;23.670;2023-05-11T13:03:36;91599.06;;;11.55;72.80
44481;BME280;30184;42.018;23.670;2023-05-11T13:06:05;91597.31;;;11.36;72.93
44481;BME280;30184;42.018;23.670;2023-05-11T13:08:36;91561.97;;;11.23;73.21
44481;BME280;30184;42.018;23.670;2023-05-11T13:11:20;91593.91;;;11.32;73.63
44481;BME280;30184;42.018;23.670;2023-05-11T13:13:53;91600.31;;;11.26;74.06
44481;BME280;30184;42.018;23.670;2023-05-11T13:16:24;91591.63;;;11.18;74.02
44481;BME280;30184;42.018;23.670;2023-05-11T13:18:57;91590.41;;;11.06;74.26
44481;BME280;30184;42.018;23.670;2023-05-11T13:21:27;91582.47;;;10.99;74.72
44481;BME280;30184;42.018;23.670;2023-05-11T13:23:56;91556.53;;;10.69;74.71
44481;BME280;30184;42.018;23.670;2023-05-11T13:26:29;91593.75;;;10.98;75.22
44481;BME280;30184;42.018;23.670;2023-05-11T13:28:58;91592.34;;;10.93;74.85
44481;BME280;30184;42.018;23.670;2023-05-11T13:31:30;91586.22;;;10.89;75.06
44481;BME280;30184;42.018;23.670;2023-05-11T13:33:59;91582.34;;;10.90;75.51